createdAt,value
2023-03-10T00:01:32.729Z,97860.59
2023-03-10T00:04:01.515Z,97872.20
2023-03-10T00:06:32.976Z,97880.43
2023-03-10T00:09:01.313Z,97882.21
2023-03-10T00:11:29.784Z,97887.48
2023-03-10T00:13:58.961Z,97892.19
2023-03-10T00:16:33.683Z,97888.02
2023-03-10T00:19:04.040Z,97888.26
2023-03-10T00:21:32.641Z,97885.77
2023-03-10T00:24:05.581Z,97880.33
2023-03-10T00:26:34.591Z,97872.73
2023-03-10T00:29:02.695Z,97881.73
2023-03-10T00:31:31.830Z,97890.05
2023-03-10T00:34:00.744Z,97899.27
2023-03-10T00:36:31.057Z,97901.47
2023-03-10T00:39:02.505Z,97910.99
2023-03-10T00:41:35.801Z,97912.61
2023-03-10T00:44:03.885Z,97925.23
2023-03-10T00:46:36.535Z,97933.74
2023-03-10T00:49:06.826Z,97956.94
2023-03-10T00:51:35.248Z,97969.20
2023-03-10T00:54:06.297Z,97976.53
2023-03-10T00:56:35.825Z,97984.21
2023-03-10T00:59:07.475Z,97995.17
2023-03-10T01:01:39.829Z,97998.16
2023-03-10T01:04:14.389Z,98006.16
2023-03-10T01:06:44.721Z,98011.02
2023-03-10T01:09:14.523Z,98012.27
2023-03-10T01:11:42.953Z,98019.60
2023-03-10T01:14:13.382Z,98023.19
2023-03-10T01:16:41.611Z,98036.54
2023-03-10T01:19:09.933Z,98040.30
2023-03-10T01:21:38.513Z,98043.42
2023-03-10T01:24:06.996Z,98052.60
2023-03-10T01:26:35.788Z,98063.13
2023-03-10T01:29:05.195Z,98065.14
2023-03-10T01:31:33.819Z,98064.50
2023-03-10T01:34:03.391Z,98061.59
2023-03-10T01:36:31.469Z,98063.86
2023-03-10T01:39:00.639Z,98067.08
2023-03-10T01:41:29.361Z,98074.02
2023-03-10T01:43:57.886Z,98081.55
2023-03-10T01:46:39.920Z,98085.70
2023-03-10T01:49:27.171Z,98085.70
2023-03-10T01:51:59.114Z,98087.92
2023-03-10T01:54:46.642Z,98093.29
2023-03-10T01:57:15.311Z,98096.27
2023-03-10T01:59:43.896Z,98100.05
2023-03-10T02:02:12.348Z,98105.90
2023-03-10T02:04:43.721Z,98117.40
2023-03-10T02:07:13.427Z,98124.27
2023-03-10T02:09:44.413Z,98132.58
2023-03-10T02:12:12.993Z,98141.91
2023-03-10T02:14:43.252Z,98152.10
2023-03-10T02:17:17.302Z,98162.59
2023-03-10T02:20:11.127Z,98166.42
2023-03-10T02:22:40.507Z,98180.80
2023-03-10T02:25:13.986Z,98192.82
2023-03-10T02:27:42.295Z,98199.71
2023-03-10T02:30:24.929Z,98207.92
2023-03-10T02:32:58.600Z,98211.60
2023-03-10T02:35:28.501Z,98221.52
2023-03-10T02:38:00.295Z,98219.97
2023-03-10T02:40:34.028Z,98217.38
2023-03-10T02:43:13.227Z,98213.08
2023-03-10T02:45:43.290Z,98222.59
2023-03-10T02:48:13.481Z,98222.41
2023-03-10T02:50:43.172Z,98227.55
2023-03-10T02:53:13.877Z,98227.36
2023-03-10T02:55:41.993Z,98219.23
2023-03-10T02:58:10.884Z,98220.77
2023-03-10T03:00:41.037Z,98222.83
2023-03-10T03:03:09.797Z,98230.21
2023-03-10T03:05:38.557Z,98239.89
2023-03-10T03:08:13.084Z,98239.30
2023-03-10T03:10:42.925Z,98238.45
2023-03-10T03:13:11.762Z,98245.00
2023-03-10T03:15:40.392Z,98251.92
2023-03-10T03:18:11.382Z,98262.35
2023-03-10T03:20:41.247Z,98266.73
2023-03-10T03:23:12.498Z,98267.30
2023-03-10T03:25:41.578Z,98272.25
2023-03-10T03:28:11.125Z,98280.45
2023-03-10T03:30:40.521Z,98285.90
2023-03-10T03:33:08.736Z,98288.87
2023-03-10T03:35:38.268Z,98297.52
2023-03-10T03:38:07.368Z,98296.31
2023-03-10T03:40:37.482Z,98300.45
2023-03-10T03:43:06.784Z,98303.43
2023-03-10T03:45:38.466Z,98308.42
2023-03-10T03:48:06.565Z,98310.31
2023-03-10T03:50:35.894Z,98315.50
2023-03-10T03:53:09.087Z,98316.80
2023-03-10T03:55:37.380Z,98318.73
2023-03-10T03:58:08.850Z,98317.07
2023-03-10T04:00:40.193Z,98321.10
2023-03-10T04:03:09.608Z,98330.08
2023-03-10T04:05:38.772Z,98337.66
2023-03-10T04:08:08.061Z,98339.05
2023-03-10T04:10:36.484Z,98335.13
2023-03-10T04:13:05.035Z,98334.60
2023-03-10T04:15:33.604Z,98335.14
2023-03-10T04:18:02.132Z,98339.33
2023-03-10T04:20:30.812Z,98343.44
2023-03-10T04:23:01.007Z,98349.80
2023-03-10T04:25:33.729Z,98356.48
2023-03-10T04:28:02.537Z,98360.27
2023-03-10T04:30:31.073Z,98360.79
2023-03-10T04:33:04.879Z,98359.26
2023-03-10T04:35:35.301Z,98360.09
2023-03-10T04:38:04.173Z,98371.23
2023-03-10T04:40:32.621Z,98373.70
2023-03-10T04:43:01.490Z,98377.66
2023-03-10T04:45:30.587Z,98376.36
2023-03-10T04:47:59.361Z,98374.01
2023-03-10T04:50:27.437Z,98368.69
2023-03-10T04:52:56.473Z,98367.77
2023-03-10T04:55:27.307Z,98371.09
2023-03-10T04:57:55.659Z,98379.10
2023-03-10T05:00:24.184Z,98374.54
2023-03-10T05:02:54.118Z,98373.58
2023-03-10T05:05:22.436Z,98377.17
2023-03-10T05:07:50.678Z,98382.85
2023-03-10T05:10:20.496Z,98381.23
2023-03-10T05:12:49.569Z,98377.11
2023-03-10T05:15:17.931Z,98381.66
2023-03-10T05:17:49.977Z,98381.83
2023-03-10T05:20:19.404Z,98392.09
2023-03-10T05:22:52.007Z,98393.91
2023-03-10T05:25:21.463Z,98390.63
2023-03-10T05:27:49.745Z,98393.21
2023-03-10T05:30:18.500Z,98403.92
2023-03-10T05:32:48.604Z,98406.29
2023-03-10T05:35:18.374Z,98408.98
2023-03-10T05:37:47.200Z,98419.95
2023-03-10T05:40:23.573Z,98424.60
2023-03-10T05:42:53.155Z,98431.14
2023-03-10T05:45:22.089Z,98430.02
2023-03-10T05:47:52.238Z,98433.21
2023-03-10T05:50:20.635Z,98436.84
2023-03-10T05:52:55.623Z,98442.75
2023-03-10T05:55:25.251Z,98447.40
2023-03-10T05:57:54.297Z,98449.29
2023-03-10T06:00:24.541Z,98453.03
2023-03-10T06:02:58.249Z,98464.11
2023-03-10T06:05:28.146Z,98461.25
2023-03-10T06:07:57.028Z,98456.80
2023-03-10T06:10:25.078Z,98456.52
2023-03-10T06:12:56.597Z,98461.02
2023-03-10T06:15:25.060Z,98465.79
2023-03-10T06:17:53.140Z,98470.80
2023-03-10T06:20:21.384Z,98476.98
2023-03-10T06:22:52.486Z,98478.67
2023-03-10T06:25:23.232Z,98480.18
2023-03-10T06:27:52.066Z,98482.78
2023-03-10T06:30:21.020Z,98487.20
2023-03-10T06:32:49.147Z,98492.37
2023-03-10T06:35:18.001Z,98492.96
2023-03-10T06:37:46.331Z,98492.96
2023-03-10T06:40:14.503Z,98487.41
2023-03-10T06:42:43.380Z,98485.20
2023-03-10T06:45:15.922Z,98480.09
2023-03-10T06:47:45.240Z,98479.16
2023-03-10T06:50:14.393Z,98473.34
2023-03-10T06:52:45.966Z,98470.25
2023-03-10T06:55:14.790Z,98472.96
2023-03-10T06:57:42.930Z,98475.30
2023-03-10T07:00:15.596Z,98472.61
2023-03-10T07:02:44.237Z,98466.73
2023-03-10T07:05:13.826Z,98464.70
2023-03-10T07:07:42.205Z,98460.30
2023-03-10T07:10:17.008Z,98460.57
2023-03-10T07:12:45.967Z,98452.38
2023-03-10T07:15:16.340Z,98455.81
2023-03-10T07:17:49.383Z,98458.83
2023-03-10T07:20:18.595Z,98461.67
2023-03-10T07:22:48.133Z,98463.80
2023-03-10T07:25:16.488Z,98475.27
2023-03-10T07:27:45.094Z,98492.23
2023-03-10T07:30:13.337Z,98505.48
2023-03-10T07:32:43.463Z,98502.00
2023-03-10T07:35:12.027Z,98512.21
2023-03-10T07:37:41.095Z,98538.88
2023-03-10T07:40:11.007Z,98553.11
2023-03-10T07:42:39.106Z,98539.58
2023-03-10T07:45:07.557Z,98528.11
2023-03-10T07:47:35.758Z,98551.69
2023-03-10T07:50:05.368Z,98552.00
2023-03-10T07:52:35.381Z,98539.95
2023-03-10T07:55:08.930Z,98541.38
2023-03-10T07:57:37.101Z,98541.75
2023-03-10T08:00:09.173Z,98539.11
2023-03-10T08:02:44.827Z,98545.09
2023-03-10T08:05:16.057Z,98539.38
2023-03-10T08:07:55.364Z,98538.62
2023-03-10T08:10:28.693Z,98554.96
2023-03-10T08:13:00.947Z,98558.36
2023-03-10T08:15:40.126Z,98560.86
2023-03-10T08:18:15.513Z,98554.08
2023-03-10T08:23:38.012Z,98548.34
2023-03-10T08:26:09.807Z,98556.85
2023-03-10T08:28:39.058Z,98557.20
2023-03-10T08:31:09.572Z,98543.71
2023-03-10T08:33:39.089Z,98541.49
2023-03-10T08:36:15.631Z,98535.26
2023-03-10T08:38:44.367Z,98530.20
2023-03-10T08:41:21.205Z,98527.34
2023-03-10T08:43:50.605Z,98514.73
2023-03-10T08:46:19.850Z,98511.23
2023-03-10T08:48:48.435Z,98502.30
2023-03-10T08:51:16.933Z,98500.45
2023-03-10T08:53:47.124Z,98507.41
2023-03-10T08:56:16.071Z,98507.95
2023-03-10T08:58:44.677Z,98511.12
2023-03-10T09:01:14.121Z,98521.06
2023-03-10T09:03:43.381Z,98525.25
2023-03-10T09:06:11.668Z,98525.52
2023-03-10T09:08:44.052Z,98523.13
2023-03-10T09:11:17.466Z,98527.76
2023-03-10T09:13:46.491Z,98530.17
2023-03-10T09:16:19.463Z,98520.89
2023-03-10T09:18:49.003Z,98518.33
2023-03-10T09:21:18.061Z,98514.15
2023-03-10T09:23:47.748Z,98517.70
2023-03-10T09:26:16.455Z,98516.88
2023-03-10T09:28:51.166Z,98515.52
2023-03-10T09:31:26.515Z,98511.84
2023-03-10T09:34:02.200Z,98523.69
2023-03-10T09:36:32.740Z,98531.97
2023-03-10T09:39:04.264Z,98535.14
2023-03-10T09:41:44.590Z,98536.82
2023-03-10T09:44:39.976Z,98541.38
2023-03-10T09:47:27.310Z,98542.75
2023-03-10T09:50:02.117Z,98548.08
2023-03-10T09:52:34.312Z,98547.61
2023-03-10T09:55:21.376Z,98548.06
2023-03-10T09:57:54.644Z,98538.23
2023-03-10T10:00:30.932Z,98529.75
2023-03-10T10:03:19.959Z,98512.46
2023-03-10T10:05:53.668Z,98484.00
2023-03-10T10:08:28.900Z,98477.21
2023-03-10T10:10:58.140Z,98470.77
2023-03-10T10:13:30.739Z,98473.52
2023-03-10T10:16:24.445Z,98500.06
2023-03-10T10:19:17.510Z,98494.98
2023-03-10T10:21:58.433Z,98496.48
2023-03-10T10:24:26.648Z,98509.71
2023-03-10T10:26:56.086Z,98524.58
2023-03-10T10:29:27.112Z,98517.12
2023-03-10T10:32:12.504Z,98519.16
2023-03-10T10:34:46.112Z,98516.84
2023-03-10T10:37:20.675Z,98507.92
2023-03-10T10:39:51.892Z,98490.33
2023-03-10T10:42:32.826Z,98478.86
2023-03-10T10:45:06.406Z,98480.59
2023-03-10T10:47:50.093Z,98482.25
2023-03-10T10:50:24.303Z,98476.46
2023-03-10T10:53:13.698Z,98480.33
2023-03-10T10:55:43.025Z,98484.99
2023-03-10T10:58:28.576Z,98481.56
2023-03-10T11:01:05.471Z,98475.20
2023-03-10T11:03:38.352Z,98478.92
2023-03-10T11:06:19.376Z,98488.23
2023-03-10T11:08:52.915Z,98490.55
2023-03-10T11:11:29.718Z,98488.20
2023-03-10T11:14:11.973Z,98492.61
2023-03-10T11:16:55.481Z,98485.42
2023-03-10T11:19:57.619Z,98485.74
2023-03-10T11:22:45.326Z,98481.08
2023-03-10T11:25:44.786Z,98475.08
2023-03-10T11:28:31.154Z,98470.42
2023-03-10T11:31:20.451Z,98459.86
2023-03-10T11:34:19.613Z,98456.71
2023-03-10T11:37:00.033Z,98459.98
2023-03-10T11:39:41.843Z,98461.45
2023-03-10T11:42:37.433Z,98466.87
2023-03-10T11:45:25.200Z,98465.72
2023-03-10T11:48:05.880Z,98465.24
2023-03-10T11:50:55.119Z,98476.75
2023-03-10T11:53:32.221Z,98479.20
2023-03-10T11:56:01.188Z,98474.06
2023-03-10T11:58:48.922Z,98463.27
2023-03-10T12:01:42.489Z,98457.83
2023-03-10T12:04:33.124Z,98449.95
2023-03-10T12:07:32.778Z,98440.02
2023-03-10T12:10:15.482Z,98430.10
2023-03-10T12:12:48.076Z,98423.70
2023-03-10T12:15:16.149Z,98424.56
2023-03-10T12:17:46.150Z,98429.44
2023-03-10T12:20:14.180Z,98424.77
2023-03-10T12:22:52.110Z,98427.33
2023-03-10T12:25:30.316Z,98431.36
2023-03-10T12:28:24.888Z,98433.19
2023-03-10T12:31:00.378Z,98435.52
2023-03-10T12:33:37.501Z,98440.36
2023-03-10T12:36:32.868Z,98434.34
2023-03-10T12:39:29.181Z,98433.19
2023-03-10T12:42:29.168Z,98430.30
2023-03-10T12:45:21.984Z,98427.93
2023-03-10T12:48:04.507Z,98424.95
2023-03-10T12:50:35.181Z,98423.27
2023-03-10T12:53:13.225Z,98426.28
2023-03-10T12:55:44.307Z,98430.34
2023-03-10T12:58:17.293Z,98428.76
2023-03-10T13:01:01.275Z,98422.55
2023-03-10T13:03:47.713Z,98415.09
2023-03-10T13:06:30.446Z,98413.27
2023-03-10T13:09:29.647Z,98410.16
2023-03-10T13:12:00.932Z,98402.21
2023-03-10T13:14:39.738Z,98393.84
2023-03-10T13:17:18.831Z,98388.08
2023-03-10T13:19:56.424Z,98391.30
2023-03-10T13:22:27.756Z,98390.70
2023-03-10T13:25:02.785Z,98388.03
2023-03-10T13:27:33.707Z,98387.20
2023-03-10T13:30:20.291Z,98389.16
2023-03-10T13:33:01.521Z,98386.61
2023-03-10T13:35:37.007Z,98382.16
2023-03-10T13:38:06.882Z,98379.91
2023-03-10T13:40:44.041Z,98377.78
2023-03-10T13:43:51.515Z,98380.08
2023-03-10T13:46:28.152Z,98378.27
2023-03-10T13:49:07.636Z,98376.15
2023-03-10T13:51:37.157Z,98363.94
2023-03-10T13:54:22.021Z,98352.66
2023-03-10T13:56:54.998Z,98348.90
2023-03-10T13:59:31.581Z,98350.45
2023-03-10T14:02:00.820Z,98346.63
2023-03-10T14:04:58.634Z,98341.45
2023-03-10T14:07:28.986Z,98342.23
2023-03-10T14:10:08.135Z,98342.45
2023-03-10T14:12:50.318Z,98340.33
2023-03-10T14:15:30.545Z,98334.95
2023-03-10T14:18:08.992Z,98334.80
2023-03-10T14:20:42.278Z,98338.77
2023-03-10T14:23:20.215Z,98339.66
2023-03-10T14:25:57.401Z,98343.27
2023-03-10T14:28:27.930Z,98340.84
2023-03-10T14:30:56.038Z,98333.19
2023-03-10T14:33:24.579Z,98334.70
2023-03-10T14:35:53.060Z,98339.98
2023-03-10T14:38:22.224Z,98339.67
2023-03-10T14:40:54.453Z,98339.27
2023-03-10T14:43:26.756Z,98337.42
2023-03-10T14:46:00.419Z,98335.58
2023-03-10T14:48:31.185Z,98340.45
2023-03-10T14:50:59.427Z,98336.98
2023-03-10T14:53:28.106Z,98334.02
2023-03-10T14:55:57.024Z,98333.25
2023-03-10T14:58:35.462Z,98328.67
2023-03-10T15:01:03.594Z,98325.61
2023-03-10T15:03:32.191Z,98323.23
2023-03-10T15:06:00.450Z,98319.77
2023-03-10T15:08:37.353Z,98316.70
2023-03-10T15:11:05.881Z,98313.98
2023-03-10T15:13:35.389Z,98311.98
2023-03-10T15:16:08.035Z,98308.80
2023-03-10T15:18:37.023Z,98304.17
2023-03-10T15:21:05.361Z,98303.12
2023-03-10T15:23:34.902Z,98306.11
2023-03-10T15:26:09.859Z,98308.09
2023-03-10T15:28:38.286Z,98312.47
2023-03-10T15:31:06.912Z,98311.98
2023-03-10T15:33:35.575Z,98313.09
2023-03-10T15:36:07.021Z,98316.27
2023-03-10T15:38:35.840Z,98317.51
2023-03-10T15:41:05.835Z,98318.77
2023-03-10T15:43:37.054Z,98318.63
2023-03-10T15:46:09.712Z,98316.63
2023-03-10T15:48:39.948Z,98318.08
2023-03-10T15:51:10.217Z,98321.25
2023-03-10T15:53:38.308Z,98322.14
2023-03-10T15:56:07.916Z,98314.56
2023-03-10T15:58:36.128Z,98310.46
2023-03-10T16:01:15.398Z,98313.42
2023-03-10T16:03:44.013Z,98306.17
2023-03-10T16:06:12.821Z,98301.85
2023-03-10T16:08:44.604Z,98301.55
2023-03-10T16:11:18.156Z,98302.09
2023-03-10T16:13:46.926Z,98296.78
2023-03-10T16:16:18.580Z,98298.77
2023-03-10T16:18:47.173Z,98295.90
2023-03-10T16:21:22.641Z,98295.90
2023-03-10T16:23:51.360Z,98292.98
2023-03-10T16:26:23.190Z,98290.27
2023-03-10T16:28:54.494Z,98287.14
2023-03-10T16:31:25.200Z,98285.94
2023-03-10T16:33:55.004Z,98287.54
2023-03-10T16:36:24.994Z,98283.20
2023-03-10T16:38:56.648Z,98283.35
2023-03-10T16:41:26.162Z,98284.09
2023-03-10T16:43:55.542Z,98283.59
2023-03-10T16:46:25.781Z,98281.19
2023-03-10T16:48:55.846Z,98279.46
2023-03-10T16:51:38.249Z,98276.17
2023-03-10T16:54:10.297Z,98269.27
2023-03-10T16:56:40.761Z,98264.06
2023-03-10T16:59:21.816Z,98264.77
2023-03-10T17:01:50.788Z,98262.98
2023-03-10T17:04:19.707Z,98265.38
2023-03-10T17:06:52.568Z,98263.52
2023-03-10T17:09:20.991Z,98262.52
2023-03-10T17:11:55.329Z,98263.34
2023-03-10T17:14:24.352Z,98261.40
2023-03-10T17:16:54.334Z,98262.08
2023-03-10T17:19:28.859Z,98261.75
2023-03-10T17:21:57.348Z,98258.29
2023-03-10T17:24:27.022Z,98255.66
2023-03-10T17:26:56.953Z,98258.41
2023-03-10T17:29:25.390Z,98252.32
2023-03-10T17:31:59.083Z,98258.84
2023-03-10T17:34:29.420Z,98256.93
2023-03-10T17:36:57.474Z,98257.81
2023-03-10T17:39:30.160Z,98259.99
2023-03-10T17:42:03.889Z,98263.09
2023-03-10T17:44:34.112Z,98265.13
2023-03-10T17:47:03.245Z,98257.91
2023-03-10T17:49:33.594Z,98255.40
2023-03-10T17:52:02.908Z,98253.35
2023-03-10T17:54:31.676Z,98254.51
2023-03-10T17:57:00.239Z,98249.12
2023-03-10T17:59:28.947Z,98245.50
2023-03-10T18:01:57.145Z,98243.95
2023-03-10T18:04:30.314Z,98241.20
2023-03-10T18:07:03.372Z,98237.95
2023-03-10T18:09:51.397Z,98233.97
2023-03-10T18:12:19.501Z,98235.79
2023-03-10T18:14:50.907Z,98235.28
2023-03-10T18:17:19.001Z,98230.68
2023-03-10T18:19:52.355Z,98230.36
2023-03-10T18:22:22.374Z,98231.58
2023-03-10T18:24:51.022Z,98229.88
2023-03-10T18:30:11.469Z,98224.33
2023-03-10T18:32:55.984Z,98227.63
2023-03-10T18:35:28.306Z,98222.98
2023-03-10T18:38:01.821Z,98217.99
2023-03-10T18:40:32.563Z,98218.04
2023-03-10T18:43:04.307Z,98210.30
2023-03-10T18:45:34.730Z,98206.16
2023-03-10T18:48:03.491Z,98202.19
2023-03-10T18:50:37.090Z,98204.14
2023-03-10T18:53:10.129Z,98205.52
2023-03-10T18:55:39.274Z,98203.27
2023-03-10T18:58:07.524Z,98197.25
2023-03-10T19:00:45.688Z,98195.52
2023-03-10T19:03:16.716Z,98188.24
2023-03-10T19:05:49.620Z,98190.48
2023-03-10T19:08:18.864Z,98189.69
2023-03-10T19:11:01.817Z,98184.86
2023-03-10T19:13:30.505Z,98183.03
2023-03-10T19:15:59.493Z,98178.58
2023-03-10T19:18:28.707Z,98174.35
2023-03-10T19:21:00.219Z,98173.02
2023-03-10T19:23:28.718Z,98167.91
2023-03-10T19:25:56.864Z,98164.70
2023-03-10T19:28:26.360Z,98165.29
2023-03-10T19:30:54.505Z,98157.45
2023-03-10T19:33:23.720Z,98155.80
2023-03-10T19:36:03.124Z,98151.70
2023-03-10T19:38:31.781Z,98148.00
2023-03-10T19:41:00.855Z,98141.67
2023-03-10T19:43:32.251Z,98139.89
2023-03-10T19:46:01.984Z,98136.70
2023-03-10T19:48:30.776Z,98136.50
2023-03-10T19:50:59.720Z,98128.32
2023-03-10T19:53:29.492Z,98129.47
2023-03-10T19:55:59.783Z,98128.40
2023-03-10T19:58:28.383Z,98125.16
2023-03-10T20:01:00.518Z,98126.63
2023-03-10T20:03:30.857Z,98123.04
2023-03-10T20:05:59.544Z,98118.92
2023-03-10T20:08:30.655Z,98122.21
2023-03-10T20:11:02.304Z,98117.06
2023-03-10T20:13:31.434Z,98117.23
2023-03-10T20:16:00.818Z,98116.50
2023-03-10T20:18:31.416Z,98119.59
2023-03-10T20:21:02.841Z,98118.87
2023-03-10T20:23:35.115Z,98111.95
2023-03-10T20:26:08.311Z,98110.02
2023-03-10T20:28:37.110Z,98107.02
2023-03-10T20:31:05.299Z,98104.46
2023-03-10T20:33:35.318Z,98101.84
2023-03-10T20:36:08.741Z,98101.30
2023-03-10T20:38:39.091Z,98100.65
2023-03-10T20:41:16.296Z,98103.23
2023-03-10T20:43:44.641Z,98103.35
2023-03-10T20:46:13.165Z,98100.42
2023-03-10T20:48:43.249Z,98098.30
2023-03-10T20:51:14.325Z,98094.66
2023-03-10T20:53:46.853Z,98091.21
2023-03-10T20:56:16.888Z,98087.18
2023-03-10T20:58:48.487Z,98080.84
2023-03-10T21:01:28.051Z,98082.32
2023-03-10T21:03:58.678Z,98079.02
2023-03-10T21:06:30.131Z,98066.64
2023-03-10T21:09:05.923Z,98074.91
2023-03-10T21:11:37.295Z,98073.33
2023-03-10T21:14:06.336Z,98070.77
2023-03-10T21:16:39.855Z,98071.13
2023-03-10T21:19:13.529Z,98064.02
2023-03-10T21:21:43.197Z,98064.89
2023-03-10T21:24:12.114Z,98059.72
2023-03-10T21:26:44.930Z,98055.05
2023-03-10T21:29:13.088Z,98053.36
2023-03-10T21:31:41.710Z,98051.46
2023-03-10T21:34:09.951Z,98051.95
2023-03-10T21:36:38.478Z,98056.06
2023-03-10T21:39:09.099Z,98047.96
2023-03-10T21:41:41.227Z,98046.57
2023-03-10T21:44:10.481Z,98046.73
2023-03-10T21:46:39.335Z,98046.78
2023-03-10T21:49:09.369Z,98042.97
2023-03-10T21:51:37.822Z,98042.50
2023-03-10T21:54:06.220Z,98039.55
2023-03-10T21:56:38.186Z,98038.15
2023-03-10T21:59:07.663Z,98033.95
2023-03-10T22:01:36.842Z,98029.06
2023-03-10T22:04:04.930Z,98026.59
2023-03-10T22:06:33.099Z,98020.02
2023-03-10T22:09:07.100Z,98020.35
2023-03-10T22:11:36.374Z,98018.36
2023-03-10T22:14:06.404Z,98019.87
2023-03-10T22:16:34.459Z,98019.49
2023-03-10T22:19:03.094Z,98016.88
2023-03-10T22:21:31.652Z,98014.23
2023-03-10T22:24:00.206Z,98015.91
2023-03-10T22:26:28.453Z,98013.08
2023-03-10T22:28:57.347Z,98011.17
2023-03-10T22:31:26.501Z,98007.80
2023-03-10T22:33:54.626Z,98009.98
2023-03-10T22:36:24.035Z,98001.18
2023-03-10T22:38:52.260Z,98000.52
2023-03-10T22:41:22.758Z,98003.48
2023-03-10T22:43:51.827Z,98002.29
2023-03-10T22:46:20.559Z,97998.70
2023-03-10T22:48:49.248Z,97998.70
2023-03-10T22:51:18.780Z,97993.35
2023-03-10T22:53:49.699Z,97995.27
2023-03-10T22:56:17.767Z,97995.86
2023-03-10T22:58:45.948Z,97994.36
2023-03-10T23:01:14.244Z,97997.45
2023-03-10T23:03:42.636Z,97990.72
2023-03-10T23:06:15.839Z,97986.16
2023-03-10T23:08:46.791Z,97987.10
2023-03-10T23:11:15.760Z,97985.98
2023-03-10T23:13:44.847Z,97984.93
2023-03-10T23:16:13.176Z,97982.38
2023-03-10T23:18:41.886Z,97982.09
2023-03-10T23:21:09.948Z,97981.18
2023-03-10T23:23:39.465Z,97980.29
2023-03-10T23:26:07.816Z,97973.27
2023-03-10T23:28:36.268Z,97973.22
2023-03-10T23:31:04.798Z,97966.81
2023-03-10T23:33:33.312Z,97963.98
2023-03-10T23:36:02.242Z,97964.68
2023-03-10T23:38:30.552Z,97966.43
2023-03-10T23:40:59.876Z,97964.20
2023-03-10T23:43:28.295Z,97960.05
2023-03-10T23:45:56.520Z,97960.50
2023-03-10T23:48:25.039Z,97956.21
2023-03-10T23:50:53.157Z,97949.35
2023-03-10T23:53:23.441Z,97948.45
2023-03-10T23:55:51.698Z,97945.08
2023-03-10T23:58:20.016Z,97946.77
